Tiempo atmosférico en la estación meteorológica de Alcuescar, Cáceres (460 m.)

Fecha
DESCASC
Temp. máxima en grados centígrados (hora)
DESCASC
Temp. mínima en grados centígrados (hora)
DESCASC
Temp. media en grados centígrados
DESCASC
Racha de viento máxima en m/sg (hora)
DESCASC
Velocidad máxima media en intervalos de 10 minutos(hora)
DESCASC
Precipitaciones diarias en mm
DESCASC
Precipitaciones de 00:00 a 06:00 en mm
DESCASC
Precipitaciones de 06:00 a 12:00 en mm
DESCASC
Precipitaciones de 12:00 a 18:00 en mm
DESCASC
Precipitaciones de 18:00 a 24:00 en mm
DESCASC
17-09-2017 26.2 (17:20) 9.6 (07:50) 17.9 7.5 (15:20) 4.17 (19:40) 0 0 0 0 0
16-09-2017 24.6 (17:30) 8.6 (08:20) 16.6 8.61 (15:40) 4.17 (17:40) 0 0 0 0 0
15-09-2017 24.8 (17:00) 11.7 (08:20) 18.2 11.11 (12:00) 7.22 (13:50) 0 0 0 0 0
14-09-2017 30.1 (18:10) 14.6 (00:00) 22.4 7.78 (15:50) 5 (15:40) 0 0 0 0 0
13-09-2017 33.1 (16:00) 16.2 (00:00) 24.6 7.5 (17:50) 4.17 (18:20) 0 0 0 0 0
12-09-2017 30.5 (16:20) 14.1 (00:00) 22.3 8.61 (16:00) 5.28 (11:40) 0 0 0 0 0
11-09-2017 32.3 (17:40) 14.3 (00:00) 23.3 10.28 (18:30) 6.11 (20:40) 0 0 0 0 0
10-09-2017 26.6 (17:50) 10.4 (00:00) 18.5 10.56 (00:10) 6.67 (00:10) 0 0 0 0 0
09-09-2017 26.1 (17:40) 13.7 (00:00) 19.9 13.61 (13:50) 8.33 (17:50) 0 0 0 0 0
08-09-2017 34.1 (16:50) 15.7 (00:00) 24.9 10.28 (20:00) 6.11 (19:50) 0 0 0 0 0
07-09-2017 34.2 (16:50) 16.8 (00:00) 25.5 8.06 (15:50) 3.89 (17:10) 0 0 0 0 0
06-09-2017 35.7 (16:40) 18.8 (00:00) 27.3 6.67 (16:50) 3.61 (16:50) 0 0 0 0 0
05-09-2017 34.5 (18:20) 16.6 (00:00) 25.6 6.39 (12:20) 4.17 (11:50) 0 0 0 0 0
04-09-2017 31.3 (17:40) 15.1 (00:00) 23.2 9.72 (18:00) 5.83 (11:50) 0 0 0 0 0
03-09-2017 33 (18:10) 19.3 (00:00) 26.1 10.28 (18:10) 5.28 (18:10) 0 0 0 0 0
02-09-2017 32.4 (18:30) 17 (00:00) 24.7 11.39 (11:20) 8.06 (10:50) 0 0 0 0 0
01-09-2017 31.5 (17:50) 15.8 (00:00) 23.7 9.17 (18:10) 5 (18:10) 0 0 0 0 0
31-08-2017 31.1 (17:40) 15.4 (00:00) 23.3 5.83 (17:50) 3.06 (14:10) 0 0 0 0 0
30-08-2017 27.4 (17:40) 14.1 (00:00) 20.8 6.39 (13:50) 3.61 (14:00) 0 0 0 0 0
29-08-2017 25.2 (15:40) 14.8 (00:00) 20 8.61 (17:30) 5.28 (17:40) 2.4 1.8 0 0 0.6
28-08-2017 27.9 (17:10) 15.7 (00:00) 21.8 9.44 (21:30) 5.83 (21:30) 2.8 0 0 0 2.8
27-08-2017 30.9 (14:30) 19.7 (00:00) 25.3 23.61 (14:50) 7.5 (14:10) 9 0 0 8.8 0.2
26-08-2017 33.7 (17:30) 20.9 (00:00) 27.3 14.72 (14:20) 8.33 (14:20) 0 0 0 0 0
25-08-2017 34.1 (18:00) 18.4 (00:00) 26.2 10 (15:50) 5.56 (15:50) 0 0 0 0 0
24-08-2017 33.3 (17:10) 19.4 (00:00) 26.3 9.17 (17:30) 5.56 (13:40) 0 0 0 0 0
23-08-2017 36.8 (17:00) 22.3 (00:00) 29.5 9.44 (12:50) 5 (14:40) 0 0 0 0 0
22-08-2017 36.9 (17:40) 23.1 (00:00) 30 8.61 (16:40) 4.72 (16:00) 0 0 0 0 0

Gráficas

Temp. máximas Temp. mínimas Temp. medias Precipitaciones Rachas de viento máximas Velocidades máximas media en intervalos de 10 minutos

Datos horarios

Fecha y hora oficial Temperatura (ºC) Velocidad del viento (km/h) Dirección del viento Racha (km/h) Dirección de racha Precipitación (mm) Presión (hPa) Tendencia (hPa) Humedad (%)
2017-09-20 23:00:00 22.9 3 Oeste 8 Noroeste 0 -- -- 26
2017-09-20 22:00:00 23.9 3 Oeste 9 Noroeste 0 -- -- 25
2017-09-20 21:00:00 25.3 4 Oeste 7 Noroeste 0 -- -- 26
2017-09-20 20:00:00 28.2 5 Oeste 16 Noroeste 0 -- -- 22
2017-09-20 19:00:00 29.6 8 Oeste 19 Oeste 0 -- -- 17
2017-09-20 18:00:00 29.9 10 Oeste 26 Oeste 0 -- -- 16
2017-09-20 17:00:00 30.1 6 Oeste 18 Sudoeste 0 -- -- 17
2017-09-20 16:00:00 29.5 4 Nordeste 21 Oeste 0 -- -- 18
2017-09-20 15:00:00 29.3 9 Oeste 19 Oeste 0 -- -- 20
2017-09-20 14:00:00 28.5 10 Sur 19 Sudeste 0 -- -- 22
2017-09-20 13:00:00 27.3 10 Sur 22 Sur 0 -- -- 24
2017-09-20 12:00:00 25.5 13 Sur 22 Sur 0 -- -- 29
2017-09-20 11:00:00 22.7 10 Sur 16 Sudeste 0 -- -- 35
2017-09-20 10:00:00 19.1 12 Sur 17 Sur 0 -- -- 44
2017-09-20 09:00:00 15.3 12 Sur 16 Sur 0 -- -- 53
2017-09-20 08:00:00 15.4 7 Sudeste 9 Sudeste 0 -- -- 50
2017-09-20 07:00:00 16.3 2 Noroeste 6 Norte 0 -- -- 55
2017-09-20 06:00:00 17.1 6 Norte 6 Norte 0 -- -- 53
2017-09-20 05:00:00 17.4 3 Noroeste 8 Oeste 0 -- -- 54
2017-09-20 04:00:00 16.6 4 Sudoeste 9 Oeste 0 -- -- 46
2017-09-20 03:00:00 18 6 Noroeste 9 Noroeste 0 -- -- 38
2017-09-20 02:00:00 19.1 0 Calma 6 Nordeste 0 -- -- 36
2017-09-20 01:00:00 20 0 Calma -- -- 0 -- -- 39
2017-09-20 00:00:00 21.1 0 Calma 7 Sudoeste 0 -- -- 37
2017-09-19 23:00:00 21.3 4 Sudoeste 6 Oeste 0 -- -- 35
2017-09-19 22:00:00 21.3 4 Sur 10 Sur 0 -- -- 30
2017-09-19 21:00:00 23.1 5 Nordeste 8 Norte 0 -- -- 27
2017-09-19 20:00:00 26.2 5 Norte 14 Norte 0 -- -- 23
2017-09-19 19:00:00 27.7 9 Norte 16 Norte 0 -- -- 21
2017-09-19 18:00:00 28.2 8 Norte 16 Noroeste 0 -- -- 21
2017-09-19 17:00:00 27.8 9 Norte 17 Noroeste 0 -- -- 21
2017-09-19 16:00:00 27 6 Norte 18 Noroeste 0 -- -- 24
2017-09-19 15:00:00 25.9 9 Noroeste 17 Noroeste 0 -- -- 28
2017-09-19 14:00:00 24.9 5 Noroeste 15 Noroeste 0 -- -- 32
2017-09-19 13:00:00 23.3 6 Noroeste 14 Norte 0 -- -- 42
2017-09-19 12:00:00 21 4 Noroeste 10 Noroeste 0 -- -- 51
2017-09-19 11:00:00 17.3 4 Noroeste 10 Noroeste 0 -- -- 66
2017-09-19 10:00:00 14.7 6 Noroeste 13 Norte 0 -- -- 79
2017-09-19 09:00:00 12.5 5 Noroeste 8 Noroeste 0 -- -- 89
2017-09-19 08:00:00 11.7 6 Noroeste 10 Noroeste 0 -- -- 90
2017-09-19 07:00:00 12 6 Noroeste 12 Noroeste 0 -- -- 88
2017-09-19 06:00:00 12.3 8 Noroeste 10 Noroeste 0 -- -- 85
2017-09-19 05:00:00 13 5 Noroeste 14 Noroeste 0 -- -- 81
2017-09-19 04:00:00 13.4 6 Noroeste 9 Norte 0 -- -- 76
2017-09-19 03:00:00 14.8 5 Noroeste 13 Noroeste 0 -- -- 72
2017-09-19 02:00:00 15.8 9 Norte 15 Norte 0 -- -- 67
2017-09-19 01:00:00 16.4 7 Norte 13 Norte 0 -- -- 61
2017-09-19 00:00:00 17.3 9 Noroeste 17 Noroeste 0 -- -- 50
2017-09-18 23:00:00 18.1 8 Noroeste 12 Noroeste 0 -- -- 49
2017-09-18 22:00:00 19.7 5 Norte 9 Noroeste 0 -- -- 42
2017-09-18 21:00:00 21.4 8 Noroeste 18 Noroeste 0 -- -- 38
2017-09-18 20:00:00 23.8 14 Noroeste 25 Norte 0 -- -- 35
2017-09-18 19:00:00 25 17 Noroeste 35 Noroeste 0 -- -- 32
2017-09-18 18:00:00 25.1 15 Noroeste 33 Noroeste 0 -- -- 34
2017-09-18 17:00:00 25.3 19 Norte 36 Norte 0 -- -- 36
2017-09-18 16:00:00 25.2 15 Norte 36 Noroeste 0 -- -- 37
2017-09-18 15:00:00 23.5 14 Noroeste 26 Norte 0 -- -- 43
2017-09-18 14:00:00 23.2 11 Noroeste 22 Noroeste 0 -- -- 40
2017-09-18 13:00:00 21.8 11 Norte 24 Noroeste 0 -- -- 43
2017-09-18 12:00:00 20.4 11 Norte 20 Noroeste 0 -- -- 47
2017-09-18 11:00:00 17.4 12 Noroeste 19 Noroeste 0 -- -- 49
2017-09-18 10:00:00 14.3 9 Noroeste 15 Oeste 0 -- -- 61
2017-09-18 09:00:00 10.8 5 Noroeste 9 Noroeste 0 -- -- 77
2017-09-18 08:00:00 9.2 5 Noroeste 9 Norte 0 -- -- 82
2017-09-18 07:00:00 10 5 Noroeste 10 Oeste 0 -- -- 78
2017-09-18 06:00:00 10.5 5 Noroeste 9 Norte 0 -- -- 71
2017-09-18 05:00:00 11.6 5 Oeste 13 Oeste 0 -- -- 69
2017-09-18 04:00:00 13 6 Oeste 13 Sudoeste 0 -- -- 55
2017-09-18 03:00:00 13.7 5 Norte 8 Norte 0 -- -- 49
2017-09-18 02:00:00 14.9 6 Norte 9 Norte 0 -- -- 41
2017-09-18 01:00:00 15.7 8 Norte 18 Noroeste 0 -- -- 40
2017-09-18 00:00:00 17.4 9 Norte 20 Noroeste 0 -- -- 34
2017-09-17 23:00:00 18.7 10 Noroeste 17 Noroeste 0 -- -- 29
2017-09-17 22:00:00 19.9 10 Noroeste 16 Noroeste 0 -- -- 25
2017-09-17 21:00:00 21.3 8 Oeste 19 Oeste 0 -- -- 20
2017-09-17 20:00:00 23.9 12 Oeste 24 Oeste 0 -- -- 17
2017-09-17 19:00:00 25.4 12 Oeste 23 Oeste 0 -- -- 13
2017-09-17 18:00:00 26.2 12 Noroeste 26 Noroeste 0 -- -- 14
2017-09-17 17:00:00 26.1 13 Oeste 26 Oeste 0 -- -- 13
2017-09-17 16:00:00 24.8 12 Oeste 27 Sudoeste 0 -- -- 16
2017-09-17 15:00:00 25.2 13 Sudoeste 25 Sudoeste 0 -- -- 17
2017-09-17 14:00:00 24.1 9 Oeste 21 Oeste 0 -- -- 18
2017-09-17 13:00:00 23.1 6 Oeste 13 Sudoeste 0 -- -- 21
2017-09-17 12:00:00 20.7 5 Oeste 10 Noroeste 0 -- -- 25
2017-09-17 11:00:00 17.1 5 Noroeste 10 Noroeste 0 -- -- 33
2017-09-17 10:00:00 14.2 6 Noroeste 10 Noroeste 0 -- -- 40
2017-09-17 09:00:00 11 4 Noroeste 8 Noroeste 0 -- -- 47
2017-09-17 08:00:00 9.7 4 Noroeste 8 Noroeste 0 -- -- 55
2017-09-17 07:00:00 10.1 7 Noroeste 9 Noroeste 0 -- -- 53
2017-09-17 06:00:00 11.3 4 Noroeste 9 Noroeste 0 -- -- 41
2017-09-17 05:00:00 11.6 6 Noroeste 9 Oeste 0 -- -- 38
2017-09-17 04:00:00 12.1 4 Noroeste 9 Noroeste 0 -- -- 38
2017-09-17 03:00:00 12.9 7 Noroeste 9 Norte 0 -- -- 39
2017-09-17 02:00:00 13.7 6 Norte 9 Norte 0 -- -- 35
2017-09-17 01:00:00 14.8 6 Norte 10 Nordeste 0 -- -- 32
2017-09-17 00:00:00 16.7 5 Nordeste 8 Nordeste 0 -- -- 28
2017-09-16 23:00:00 17 5 Nordeste 10 Norte 0 -- -- 29
2017-09-16 22:00:00 17.8 5 Noroeste 10 Norte 0 -- -- 27
2017-09-16 21:00:00 19.6 8 Norte 22 Norte 0 -- -- 25
2017-09-16 20:00:00 22.5 11 Norte 24 Noroeste 0 -- -- 21
2017-09-16 19:00:00 24 12 Norte 26 Norte 0 -- -- 21
2017-09-16 18:00:00 24.5 11 Nordeste 27 Noroeste 0 -- -- 20
2017-09-16 17:00:00 24.4 10 Noroeste 31 Noroeste 0 -- -- 21
2017-09-16 16:00:00 24 14 Norte 31 Norte 0 -- -- 21
2017-09-16 15:00:00 23.6 9 Noroeste 23 Norte 0 -- -- 24
2017-09-16 14:00:00 22.9 5 Oeste 17 Noroeste 0 -- -- 28
2017-09-16 13:00:00 21.3 5 Noroeste 14 Noroeste 0 -- -- 30
2017-09-16 12:00:00 19.8 6 Norte 13 Norte 0 -- -- 33
2017-09-16 11:00:00 17.2 5 Noroeste 11 Norte 0 -- -- 41
2017-09-16 10:00:00 12.8 5 Noroeste 10 Noroeste 0 -- -- 52
2017-09-16 09:00:00 9.9 7 Noroeste 10 Noroeste 0 -- -- 63
2017-09-16 08:00:00 8.9 6 Norte 12 Norte 0 -- -- 65
2017-09-16 07:00:00 10.1 9 Norte 15 Noroeste 0 -- -- 60
2017-09-16 06:00:00 9.8 6 Norte 10 Norte 0 -- -- 59
2017-09-16 05:00:00 10.6 5 Norte 12 Noroeste 0 -- -- 56
2017-09-16 04:00:00 11.3 7 Noroeste 12 Noroeste 0 -- -- 49
2017-09-16 03:00:00 12.6 8 Noroeste 17 Norte 0 -- -- 42
2017-09-16 02:00:00 13.8 13 Norte 22 Norte 0 -- -- 36
2017-09-16 01:00:00 13.9 10 Norte 20 Norte 0 -- -- 34
2017-09-16 00:00:00 14.7 10 Norte 18 Norte 0 -- -- 33
2017-09-15 23:00:00 16.4 11 Norte 19 Noroeste 0 -- -- 30
2017-09-15 22:00:00 18.5 13 Noroeste 23 Noroeste 0 -- -- 25
2017-09-15 21:00:00 20 13 Norte 32 Norte 0 -- -- 22
2017-09-15 20:00:00 22.2 19 Noroeste 36 Noroeste 0 -- -- 19
2017-09-15 19:00:00 23.7 18 Norte 37 Norte 0 -- -- 18
2017-09-15 18:00:00 24.5 19 Noroeste 38 Norte 0 -- -- 18
2017-09-15 17:00:00 24.8 15 Norte 36 Norte 0 -- -- 21
2017-09-15 16:00:00 24.3 21 Norte 40 Norte 0 -- -- 21
2017-09-15 15:00:00 23.7 22 Norte 40 Norte 0 -- -- 24
2017-09-15 14:00:00 22.5 24 Norte 40 Noroeste 0 -- -- 29
2017-09-15 13:00:00 21.3 21 Noroeste 37 Norte 0 -- -- 32
2017-09-15 12:00:00 19.3 24 Norte 40 Noroeste 0 -- -- 38
2017-09-15 11:00:00 17.1 12 Norte 27 Norte 0 -- -- 46
2017-09-15 10:00:00 14.5 15 Noroeste 24 Noroeste 0 -- -- 52
2017-09-15 09:00:00 12.2 10 Noroeste 21 Noroeste 0 -- -- 58
2017-09-15 08:00:00 12.1 12 Noroeste 22 Noroeste 0 -- -- 61
2017-09-15 07:00:00 12.9 10 Norte 16 Norte 0 -- -- 71
2017-09-15 06:00:00 13.1 9 Norte 14 Noroeste 0 -- -- 70
2017-09-15 05:00:00 14.1 8 Noroeste 13 Noroeste 0 -- -- 58
2017-09-15 04:00:00 14.7 8 Noroeste 11 Noroeste 0 -- -- 47
2017-09-15 03:00:00 16.1 9 Noroeste 18 Norte 0 -- -- 45
2017-09-15 02:00:00 17.6 10 Noroeste 25 Noroeste 0 -- -- 41
2017-09-15 01:00:00 19.5 13 Norte 26 Noroeste 0 -- -- 38
2017-09-15 00:00:00 21.3 12 Norte 23 Noroeste 0 -- -- 49
2017-09-14 23:00:00 23.5 14 Noroeste 23 Noroeste 0 -- -- 45
2017-09-14 22:00:00 24.2 6 Oeste 15 Oeste 0 -- -- 35
2017-09-14 21:00:00 26.2 10 Oeste 26 Oeste 0 -- -- 30
2017-09-14 20:00:00 29.2 9 Noroeste 22 Noroeste 0 -- -- 28
2017-09-14 19:00:00 29.3 10 Noroeste 26 Norte 0 -- -- 21
2017-09-14 18:00:00 29.9 15 Noroeste 27 Noroeste 0 -- -- 23
2017-09-14 17:00:00 29.1 12 Noroeste 25 Oeste 0 -- -- 22
2017-09-14 16:00:00 29.3 15 Noroeste 28 Noroeste 0 -- -- 19
2017-09-14 15:00:00 28.6 15 Noroeste 25 Noroeste 0 -- -- 23
2017-09-14 14:00:00 27.4 14 Noroeste 26 Noroeste 0 -- -- 29
2017-09-14 13:00:00 26.9 13 Noroeste 22 Noroeste 0 -- -- 31
2017-09-14 12:00:00 23.8 10 Noroeste 18 Noroeste 0 -- -- 39
2017-09-14 11:00:00 20.9 12 Noroeste 19 Norte 0 -- -- 47
2017-09-14 10:00:00 19.2 7 Noroeste 13 Noroeste 0 -- -- 56
2017-09-14 09:00:00 16.6 3 Noroeste 5 Oeste 0 -- -- 67
2017-09-14 08:00:00 14.6 0 Calma 12 Norte 0 -- -- 72
2017-09-14 07:00:00 15.8 8 Norte 13 Noroeste 0 -- -- 70
2017-09-14 06:00:00 17.6 4 Noroeste 9 Norte 0 -- -- 59
2017-09-14 05:00:00 18.6 5 Noroeste 9 Noroeste 0 -- -- 56
2017-09-14 04:00:00 19 9 Noroeste 10 Noroeste 0 -- -- 55
2017-09-14 03:00:00 19.7 8 Norte 10 Noroeste 0 -- -- 54
2017-09-14 02:00:00 20.8 6 Norte 11 Norte 0 -- -- 47
2017-09-14 01:00:00 22 7 Noroeste 14 Noroeste 0 -- -- 40
2017-09-14 00:00:00 23.7 10 Norte 19 Noroeste 0 -- -- 36
2017-09-13 23:00:00 24.9 9 Norte 10 Norte 0 -- -- 30
2017-09-13 22:00:00 26.2 4 Oeste 14 Oeste 0 -- -- 28
2017-09-13 21:00:00 28.2 8 Oeste 13 Oeste 0 -- -- 23
2017-09-13 20:00:00 31.2 10 Oeste 20 Oeste 0 -- -- 19
2017-09-13 19:00:00 32.3 11 Oeste 24 Oeste 0 -- -- 18
2017-09-13 18:00:00 32.6 13 Sudoeste 27 Oeste 0 -- -- 18
2017-09-13 17:00:00 32.9 13 Oeste 25 Oeste 0 -- -- 17
2017-09-13 16:00:00 33.1 10 Sudoeste 21 Sudoeste 0 -- -- 18
2017-09-13 15:00:00 32.4 5 Sur 20 Noroeste 0 -- -- 19
2017-09-13 14:00:00 30.7 6 Sudeste 14 Sur 0 -- -- 21
2017-09-13 13:00:00 29.3 5 Sudoeste 19 Sur 0 -- -- 22
2017-09-13 12:00:00 28.1 11 Sur 19 Sudeste 0 -- -- 26
2017-09-13 11:00:00 25.4 10 Sur 16 Sur 0 -- -- 32
2017-09-13 10:00:00 19.8 4 Oeste 10 Noroeste 0 -- -- 52
2017-09-13 09:00:00 17.5 4 Noroeste 7 Oeste 0 -- -- 62
2017-09-13 08:00:00 16.5 5 Noroeste 10 Noroeste 0 -- -- 64
2017-09-13 07:00:00 17 6 Norte 10 Noroeste 0 -- -- 61
2017-09-13 06:00:00 17.3 7 Noroeste 11 Noroeste 0 -- -- 62
2017-09-13 05:00:00 17.5 9 Noroeste 10 Noroeste 0 -- -- 59
2017-09-13 04:00:00 18.6 8 Noroeste 11 Noroeste 0 -- -- 52
2017-09-13 03:00:00 19.4 6 Norte 12 Nordeste 0 -- -- 49
2017-09-13 02:00:00 20.3 6 Nordeste 13 Nordeste 0 -- -- 47
2017-09-13 01:00:00 20.7 7 Nordeste 12 Nordeste 0 -- -- 45
2017-09-13 00:00:00 22.5 3 Norte 18 Norte 0 -- -- 40
2017-09-12 23:00:00 23.4 12 Norte 19 Norte 0 -- -- 38
2017-09-12 22:00:00 23.5 5 Noroeste 12 Norte 0 -- -- 36
2017-09-12 21:00:00 25.8 9 Norte 21 Norte 0 -- -- 32
2017-09-12 20:00:00 28.3 13 Norte 23 Norte 0 -- -- 27
2017-09-12 19:00:00 29.4 14 Norte 25 Norte 0 -- -- 25
2017-09-12 18:00:00 30 14 Norte 27 Norte 0 -- -- 23
2017-09-12 17:00:00 30.3 16 Norte 29 Norte 0 -- -- 22
2017-09-12 16:00:00 30 14 Norte 31 Norte 0 -- -- 22
2017-09-12 15:00:00 28.8 14 Norte 29 Norte 0 -- -- 24
2017-09-12 14:00:00 27.9 13 Norte 30 Norte 0 -- -- 25
2017-09-12 13:00:00 26.3 15 Norte 30 Norte 0 -- -- 29
2017-09-12 12:00:00 24.7 18 Norte 31 Noroeste 0 -- -- 29
2017-09-12 11:00:00 21.9 15 Norte 27 Norte 0 -- -- 44
2017-09-12 10:00:00 18.2 13 Norte 23 Norte 0 -- -- 60
2017-09-12 09:00:00 14.7 11 Norte 16 Norte 0 -- -- 72
2017-09-12 08:00:00 14.5 12 Noroeste 19 Norte 0 -- -- 72
2017-09-12 07:00:00 14.4 8 Norte 18 Noroeste 0 -- -- 70
2017-09-12 06:00:00 15.6 12 Norte 19 Noroeste 0 -- -- 66
2017-09-12 05:00:00 16.2 12 Norte 19 Norte 0 -- -- 58
2017-09-12 04:00:00 17.3 10 Noroeste 16 Noroeste 0 -- -- 54
2017-09-12 03:00:00 18.5 11 Norte 16 Norte 0 -- -- 49
2017-09-12 02:00:00 19.6 10 Noroeste 20 Norte 0 -- -- 46
2017-09-12 01:00:00 20.8 12 Noroeste 18 Noroeste 0 -- -- 44
2017-09-12 00:00:00 22.4 10 Noroeste 18 Noroeste 0 -- -- 39
2017-09-11 23:00:00 24.2 14 Norte 23 Noroeste 0 -- -- 34
2017-09-11 22:00:00 25.8 15 Norte 28 Norte 0 -- -- 30
2017-09-11 21:00:00 28.2 19 Norte 36 Norte 0 -- -- 21
2017-09-11 20:00:00 30.8 16 Noroeste 30 Noroeste 0 -- -- 22
2017-09-11 19:00:00 31.8 16 Noroeste 37 Noroeste 0 -- -- 19
2017-09-11 18:00:00 32.2 15 Noroeste 31 Noroeste 0 -- -- 18
2017-09-11 17:00:00 31.8 21 Norte 33 Norte 0 -- -- 21
2017-09-11 16:00:00 31.2 14 Noroeste 28 Noroeste 0 -- -- 21
2017-09-11 15:00:00 30.3 10 Norte 23 Oeste 0 -- -- 26
2017-09-11 14:00:00 28.6 12 Norte 26 Noroeste 0 -- -- 31
2017-09-11 13:00:00 27.1 11 Noroeste 21 Noroeste 0 -- -- 35
2017-09-11 12:00:00 25 10 Noroeste 15 Norte 0 -- -- 40
2017-09-11 11:00:00 21.9 7 Oeste 11 Noroeste 0 -- -- 45
2017-09-11 10:00:00 18.9 8 Noroeste 12 Noroeste 0 -- -- 51
2017-09-11 09:00:00 16.1 3 Noroeste 6 Noroeste 0 -- -- 53
2017-09-11 08:00:00 14.5 5 Noroeste 9 Noroeste 0 -- -- 52
2017-09-11 07:00:00 15.1 6 Oeste 8 Oeste 0 -- -- 47
2017-09-11 06:00:00 15.6 5 Oeste 6 Oeste 0 -- -- 41
2017-09-11 05:00:00 16.1 6 Oeste 10 Norte 0 -- -- 37
2017-09-11 04:00:00 16.7 8 Noroeste 9 Oeste 0 -- -- 36
2017-09-11 03:00:00 17.2 5 Oeste 10 Norte 0 -- -- 31
2017-09-11 02:00:00 18.4 6 Oeste 8 Oeste 0 -- -- 28
2017-09-11 01:00:00 18.7 5 Norte 12 Norte 0 -- -- 29
2017-09-11 00:00:00 19.5 9 Norte 12 Norte 0 -- -- 27
2017-09-10 23:00:00 21.1 6 Oeste 10 Norte 0 -- -- 23
2017-09-10 22:00:00 21.6 8 Norte 14 Norte 0 -- -- 26
2017-09-10 21:00:00 23 8 Norte 17 Norte 0 -- -- 22
2017-09-10 20:00:00 25.7 8 Noroeste 21 Norte 0 -- -- 18
2017-09-10 19:00:00 26 10 Norte 24 Norte 0 -- -- 16
2017-09-10 18:00:00 26.6 13 Norte 25 Norte 0 -- -- 16
2017-09-10 17:00:00 25.9 12 Norte 24 Norte 0 -- -- 18
2017-09-10 16:00:00 25.4 10 Norte 22 Norte 0 -- -- 22
2017-09-10 15:00:00 24.1 11 Norte 21 Norte 0 -- -- 23
2017-09-10 14:00:00 22.9 6 Nordeste 18 Nordeste 0 -- -- 27
2017-09-10 13:00:00 21.4 5 Sudoeste 17 Norte 0 -- -- 32
2017-09-10 12:00:00 19.2 3 Noroeste 16 Norte 0 -- -- 39
2017-09-10 11:00:00 17 10 Norte 23 Nordeste 0 -- -- 48
2017-09-10 10:00:00 14.7 14 Norte 24 Norte 0 -- -- 57
2017-09-10 09:00:00 11.3 3 Noroeste 16 Noroeste 0 -- -- 77
2017-09-10 08:00:00 10.7 8 Norte 24 Norte 0 -- -- 80
2017-09-10 07:00:00 11.4 17 Norte 28 Norte 0 -- -- 79
2017-09-10 06:00:00 11.6 17 Norte 26 Norte 0 -- -- 80
2017-09-10 05:00:00 12.1 13 Noroeste 22 Noroeste 0 -- -- 78
2017-09-10 04:00:00 12.7 7 Noroeste 23 Noroeste 0 -- -- 73
2017-09-10 03:00:00 13.8 12 Noroeste 35 Norte 0 -- -- 69
2017-09-10 02:00:00 14.5 19 Norte 29 Noroeste 0 -- -- 65
2017-09-10 01:00:00 15.5 17 Norte 38 Noroeste 0 -- -- 59
2017-09-10 00:00:00 16.7 25 Noroeste 41 Noroeste 0 -- -- 53
2017-09-09 23:00:00 18.2 28 Norte 45 Noroeste 0 -- -- 47
2017-09-09 22:00:00 19.4 25 Noroeste 47 Norte 0 -- -- 43
2017-09-09 21:00:00 21.2 22 Noroeste 40 Noroeste 0 -- -- 30
2017-09-09 20:00:00 23.2 23 Noroeste 45 Norte 0 -- -- 27
2017-09-09 19:00:00 24.6 27 Noroeste 43 Norte 0 -- -- 25
2017-09-09 18:00:00 25.6 24 Norte 48 Norte 0 -- -- 24
2017-09-09 17:00:00 25.9 23 Noroeste 49 Noroeste 0 -- -- 27
2017-09-09 16:00:00 25.2 25 Norte 43 Noroeste 0 -- -- 31
2017-09-09 15:00:00 24.5 25 Noroeste 44 Noroeste 0 -- -- 32
2017-09-09 14:00:00 23.5 26 Noroeste 49 Noroeste 0 -- -- 33
2017-09-09 13:00:00 22.4 21 Noroeste 40 Norte 0 -- -- 39
2017-09-09 12:00:00 19.8 23 Norte 38 Norte 0 -- -- 55
2017-09-09 11:00:00 18.7 22 Norte 33 Noroeste 0 -- -- 61
2017-09-09 10:00:00 16.3 16 Noroeste 31 Noroeste 0 -- -- 70
2017-09-09 09:00:00 14.9 15 Noroeste 23 Noroeste 0 -- -- 74
2017-09-09 08:00:00 13.9 9 Noroeste 16 Noroeste 0 -- -- 63
2017-09-09 07:00:00 13.7 7 Norte 13 Noroeste 0 -- -- 61
2017-09-09 06:00:00 14.8 10 Noroeste 19 Noroeste 0 -- -- 52
2017-09-09 05:00:00 14.1 10 Noroeste 15 Noroeste 0 -- -- 54
2017-09-09 04:00:00 14.8 5 Noroeste 12 Noroeste 0 -- -- 51
2017-09-09 03:00:00 16.9 9 Noroeste 16 Noroeste 0 -- -- 34
2017-09-09 02:00:00 17.3 7 Norte 12 Norte 0 -- -- 36
2017-09-09 01:00:00 20 10 Norte 16 Norte 0 -- -- 29
2017-09-09 00:00:00 21.9 10 Noroeste 23 Noroeste 0 -- -- 27
2017-09-08 23:00:00 24.2 13 Noroeste 19 Noroeste 0 -- -- 21
2017-09-08 22:00:00 25.3 14 Noroeste 23 Noroeste 0 -- -- 18
2017-09-08 21:00:00 27.6 12 Noroeste 32 Oeste 0 -- -- 12
2017-09-08 20:00:00 30.9 20 Oeste 37 Oeste 0 -- -- 7
2017-09-08 19:00:00 32.9 21 Oeste 33 Oeste 0 -- -- 8
2017-09-08 18:00:00 33.4 19 Oeste 36 Noroeste 0 -- -- 9
2017-09-08 17:00:00 33.8 19 Oeste 31 Oeste 0 -- -- 9
2017-09-08 16:00:00 33.5 16 Noroeste 27 Noroeste 0 -- -- 8
2017-09-08 15:00:00 32.4 14 Norte 27 Norte 0 -- -- 11
2017-09-08 14:00:00 31.4 14 Noroeste 24 Noroeste 0 -- -- 12
2017-09-08 13:00:00 29.9 12 Noroeste 18 Noroeste 0 -- -- 14
2017-09-08 12:00:00 27 5 Oeste 9 Noroeste 0 -- -- 18
2017-09-08 11:00:00 23 5 Oeste 10 Norte 0 -- -- 23
2017-09-08 10:00:00 19.8 7 Noroeste 12 Noroeste 0 -- -- 24
2017-09-08 09:00:00 16.7 7 Noroeste 10 Oeste 0 -- -- 31
2017-09-08 08:00:00 16.2 9 Noroeste 10 Noroeste 0 -- -- 30
2017-09-08 07:00:00 17.4 7 Noroeste 10 Norte 0 -- -- 27
2017-09-08 06:00:00 17.4 8 Norte 12 Norte 0 -- -- 30
2017-09-08 05:00:00 18.3 6 Noroeste 6 Norte 0 -- -- 25
2017-09-08 04:00:00 18.2 6 Noroeste 9 Noroeste 0 -- -- 26
2017-09-08 03:00:00 19.2 8 Noroeste 12 Noroeste 0 -- -- 27
2017-09-08 02:00:00 20.5 9 Noroeste 12 Noroeste 0 -- -- 21
2017-09-08 01:00:00 21.9 6 Norte 9 Norte 0 -- -- 20
2017-09-08 00:00:00 23.1 6 Noroeste 14 Norte 0 -- -- 20
2017-09-07 23:00:00 24.3 7 Norte 10 Noroeste 0 -- -- 19
2017-09-07 22:00:00 26.2 7 Norte 19 Norte 0 -- -- 20
2017-09-07 21:00:00 28.5 8 Nordeste 15 Norte 0 -- -- 19
2017-09-07 20:00:00 31.7 9 Norte 20 Norte 0 -- -- 16
2017-09-07 19:00:00 33.4 11 Norte 22 Norte 0 -- -- 16
2017-09-07 18:00:00 34.1 12 Norte 21 Norte 0 -- -- 16
2017-09-07 17:00:00 34.2 10 Nordeste 26 Norte 0 -- -- 18
2017-09-07 16:00:00 33.8 10 Norte 29 Nordeste 0 -- -- 19
2017-09-07 15:00:00 33.2 9 Este 26 Nordeste 0 -- -- 23
2017-09-07 14:00:00 32.2 10 Nordeste 22 Este 0 -- -- 27
2017-09-07 13:00:00 31 4 Noroeste 21 Sudeste 0 -- -- 30
2017-09-07 12:00:00 29.9 8 Sur 14 Sur 0 -- -- 33
2017-09-07 11:00:00 25 6 Noroeste 10 Noroeste 0 -- -- 42
2017-09-07 10:00:00 20.7 6 Noroeste 12 Noroeste 0 -- -- 47
2017-09-07 09:00:00 17.7 8 Noroeste 12 Noroeste 0 -- -- 59
2017-09-07 08:00:00 17.2 9 Noroeste 11 Noroeste 0 -- -- 62
2017-09-07 07:00:00 17.6 6 Norte 12 Norte 0 -- -- 65
2017-09-07 06:00:00 18.3 8 Norte 11 Norte 0 -- -- 60
2017-09-07 05:00:00 19.6 9 Norte 12 Norte 0 -- -- 55
2017-09-07 04:00:00 20.9 3 Norte 10 Noroeste 0 -- -- 47
2017-09-07 03:00:00 21.5 8 Norte 10 Noroeste 0 -- -- 47
2017-09-07 02:00:00 23.3 9 Noroeste 12 Noroeste 0 -- -- 39
2017-09-07 01:00:00 24.1 7 Noroeste 10 Noroeste 0 -- -- 35
2017-09-07 00:00:00 25.7 8 Noroeste 18 Noroeste 0 -- -- 34
2017-09-06 23:00:00 27.9 9 Nordeste 12 Nordeste 0 -- -- 28
2017-09-06 22:00:00 28.4 9 Nordeste 13 Norte 0 -- -- 28
2017-09-06 21:00:00 30.6 8 Norte 22 Norte 0 -- -- 26
2017-09-06 20:00:00 33.5 11 Norte 22 Norte 0 -- -- 22
2017-09-06 19:00:00 34.8 11 Norte 20 Norte 0 -- -- 19
2017-09-06 18:00:00 35.3 7 Norte 19 Norte 0 -- -- 18
2017-09-06 17:00:00 35.3 9 Norte 24 Noroeste 0 -- -- 19
2017-09-06 16:00:00 35 8 Sudoeste 20 Oeste 0 -- -- 19
2017-09-06 15:00:00 34.4 10 Norte 18 Norte 0 -- -- 21
2017-09-06 14:00:00 33.3 6 Norte 15 Noroeste 0 -- -- 22
2017-09-06 13:00:00 31.8 6 Noroeste 14 Noroeste 0 -- -- 26
2017-09-06 12:00:00 29.3 5 Noroeste 14 Noroeste 0 -- -- 31
2017-09-06 11:00:00 26 5 Norte 10 Noroeste 0 -- -- 40
2017-09-06 10:00:00 22.8 6 Noroeste 13 Norte 0 -- -- 54
2017-09-06 09:00:00 20.1 5 Noroeste 7 Noroeste 0 -- -- 67
2017-09-06 08:00:00 19.1 6 Noroeste 8 Noroeste 0 -- -- 68
2017-09-06 07:00:00 19 7 Noroeste 9 Noroeste 0 -- -- 72
2017-09-06 06:00:00 19.8 6 Noroeste 8 Noroeste 0 -- -- 67
2017-09-06 05:00:00 20.3 6 Norte 8 Norte 0 -- -- 66
2017-09-06 04:00:00 20.8 8 Noroeste 10 Noroeste 0 -- -- 67
2017-09-06 03:00:00 22 7 Noroeste 12 Noroeste 0 -- -- 58
2017-09-06 02:00:00 23.7 8 Norte 15 Norte 0 -- -- 52
2017-09-06 01:00:00 24.5 9 Norte 17 Norte 0 -- -- 49
2017-09-06 00:00:00 26 12 Norte 20 Noroeste 0 -- -- 41
2017-09-05 23:00:00 27 7 Noroeste 11 Oeste 0 -- -- 34
2017-09-05 22:00:00 28.2 6 Oeste 12 Oeste 0 -- -- 33
2017-09-05 21:00:00 30.2 7 Oeste 18 Oeste 0 -- -- 29
2017-09-05 20:00:00 33.2 9 Noroeste 19 Noroeste 0 -- -- 25
2017-09-05 19:00:00 34.3 6 Oeste 18 Noroeste 0 -- -- 23
2017-09-05 18:00:00 34.2 7 Norte 20 Sudoeste 0 -- -- 22
2017-09-05 17:00:00 33.8 7 Este 18 Oeste 0 -- -- 24
2017-09-05 16:00:00 33.6 13 Sudoeste 21 Sudoeste 0 -- -- 25
2017-09-05 15:00:00 32.8 11 Oeste 18 Sudoeste 0 -- -- 27
2017-09-05 14:00:00 32.1 8 Sudeste 21 Sur 0 -- -- 27
2017-09-05 13:00:00 30.2 9 Sur 23 Sur 0 -- -- 36
2017-09-05 12:00:00 28.1 13 Sur 22 Sudeste 0 -- -- 43
2017-09-05 11:00:00 25.7 10 Sur 20 Sur 0 -- -- 56
2017-09-05 10:00:00 21.7 5 Sudeste 11 Sudeste 0 -- -- 70
2017-09-05 09:00:00 18.2 4 Noroeste 10 Norte 0 -- -- 82
2017-09-05 08:00:00 16.7 5 Noroeste 9 Norte 0 -- -- 86
2017-09-05 07:00:00 17.3 5 Norte 9 Norte 0 -- -- 83
2017-09-05 06:00:00 18.6 7 Norte 9 Norte 0 -- -- 79
2017-09-05 05:00:00 19.3 8 Nordeste 10 Nordeste 0 -- -- 76
2017-09-05 04:00:00 19.8 5 Norte 10 Nordeste 0 -- -- 72
2017-09-05 03:00:00 20.2 8 Nordeste 9 Nordeste 0 -- -- 68
2017-09-05 02:00:00 20.7 5 Norte 10 Norte 0 -- -- 61
2017-09-05 01:00:00 22.3 7 Noroeste 12 Noroeste 0 -- -- 55
2017-09-05 00:00:00 23.5 5 Noroeste 13 Oeste 0 -- -- 50
2017-09-04 23:00:00 25 9 Oeste 17 Oeste 0 -- -- 45
2017-09-04 22:00:00 26.1 9 Oeste 14 Oeste 0 -- -- 41
2017-09-04 21:00:00 28.3 5 Norte 15 Noroeste 0 -- -- 31
2017-09-04 20:00:00 30.4 12 Norte 21 Noroeste 0 -- -- 28
2017-09-04 19:00:00 31 14 Norte 24 Norte 0 -- -- 26
2017-09-04 18:00:00 31.3 14 Norte 35 Nordeste 0 -- -- 27
2017-09-04 17:00:00 30.8 13 Norte 33 Norte 0 -- -- 28
2017-09-04 16:00:00 30.1 13 Noroeste 33 Noroeste 0 -- -- 30
2017-09-04 15:00:00 29 17 Noroeste 32 Noroeste 0 -- -- 32
2017-09-04 14:00:00 27.9 16 Noroeste 33 Noroeste 0 -- -- 39
2017-09-04 13:00:00 25.8 17 Norte 32 Norte 0 -- -- 45
2017-09-04 12:00:00 23.3 21 Norte 32 Noroeste 0 -- -- 53
2017-09-04 11:00:00 22 17 Norte 31 Noroeste 0 -- -- 58
2017-09-04 10:00:00 19.4 17 Norte 26 Norte 0 -- -- 69
2017-09-04 09:00:00 16.5 9 Noroeste 15 Noroeste 0 -- -- 74
2017-09-04 08:00:00 15.4 6 Noroeste 14 Norte 0 -- -- 77
2017-09-04 07:00:00 15.8 10 Noroeste 14 Norte 0 -- -- 75
2017-09-04 06:00:00 16.7 11 Noroeste 22 Norte 0 -- -- 71
2017-09-04 05:00:00 17.6 12 Norte 23 Norte 0 -- -- 65
2017-09-04 04:00:00 18.5 14 Noroeste 23 Norte 0 -- -- 53
2017-09-04 03:00:00 19.3 12 Norte 19 Norte 0 -- -- 45
2017-09-04 02:00:00 20 11 Norte 16 Norte 0 -- -- 36
2017-09-04 01:00:00 21.7 10 Norte 21 Norte 0 -- -- 25
2017-09-04 00:00:00 23.3 13 Noroeste 22 Noroeste 0 -- -- 22
2017-09-03 23:00:00 24.2 10 Noroeste 17 Noroeste 0 -- -- 16
2017-09-03 22:00:00 25.7 9 Noroeste 17 Oeste 0 -- -- 11
2017-09-03 21:00:00 28.2 10 Oeste 27 Noroeste 0 -- -- 15
2017-09-03 20:00:00 31.1 16 Oeste 31 Oeste 0 -- -- 14
2017-09-03 19:00:00 32.5 15 Noroeste 37 Oeste 0 -- -- 14
2017-09-03 18:00:00 32.9 15 Noroeste 36 Noroeste 0 -- -- 15
2017-09-03 17:00:00 32.7 14 Noroeste 31 Noroeste 0 -- -- 14
2017-09-03 16:00:00 32.3 13 Oeste 31 Oeste 0 -- -- 16
2017-09-03 15:00:00 31.6 17 Oeste 30 Oeste 0 -- -- 16
2017-09-03 14:00:00 30.7 18 Oeste 29 Oeste 0 -- -- 18
2017-09-03 13:00:00 30.8 11 Oeste 19 Sudoeste 0 -- -- 19
2017-09-03 12:00:00 29.7 6 Sur 12 Sur 0 -- -- 22
2017-09-03 11:00:00 27.4 3 Noroeste 8 Sudeste 0 -- -- 24
2017-09-03 10:00:00 24.2 0 Calma 8 Oeste 0 -- -- 28
2017-09-03 09:00:00 20.3 4 Oeste 7 Noroeste 0 -- -- 37
2017-09-03 08:00:00 19.7 3 Oeste 5 Norte 0 -- -- 35
2017-09-03 07:00:00 19.5 3 Noroeste 7 Nordeste 0 -- -- 37
2017-09-03 06:00:00 20 5 Norte 6 Nordeste 0 -- -- 36
2017-09-03 05:00:00 20.1 8 Norte 17 Noroeste 0 -- -- 40
2017-09-03 04:00:00 21.8 11 Sur 17 Sudeste 0 -- -- 33
2017-09-03 03:00:00 23.2 9 Sur 15 Sudeste 0 -- -- 30
2017-09-03 02:00:00 23.6 6 Sur 12 Este 0 -- -- 26
2017-09-03 01:00:00 24.3 7 Nordeste 17 Este 0 -- -- 26
2017-09-03 00:00:00 23.3 8 Nordeste 13 Este 0 -- -- 28
2017-09-02 23:00:00 24.1 9 Nordeste 15 Nordeste 0 -- -- 29
2017-09-02 22:00:00 25.2 10 Nordeste 16 Nordeste 0 -- -- 27
2017-09-02 21:00:00 27.7 8 Nordeste 22 Nordeste 0 -- -- 24
2017-09-02 20:00:00 30.4 13 Nordeste 26 Nordeste 0 -- -- 21
2017-09-02 19:00:00 32.1 5 Noroeste 15 Oeste 0 -- -- 20
2017-09-02 18:00:00 32.1 6 Nordeste 18 Norte 0 -- -- 21
2017-09-02 17:00:00 32.3 7 Sudoeste 21 Sudeste 0 -- -- 22
2017-09-02 16:00:00 31.4 6 Este 26 Sur 0 -- -- 23
2017-09-02 15:00:00 31.2 15 Sur 30 Sur 0 -- -- 24
2017-09-02 14:00:00 29.9 18 Sudeste 33 Sudeste 0 -- -- 25
2017-09-02 13:00:00 28.5 19 Sudeste 38 Sur 0 -- -- 25
2017-09-02 12:00:00 26.8 24 Sudeste 41 Sudeste 0 -- -- 26
2017-09-02 11:00:00 24.8 27 Sudeste 41 Sudeste 0 -- -- 28
2017-09-02 10:00:00 23.3 23 Sudeste 37 Sudeste 0 -- -- 29
2017-09-02 09:00:00 21.5 18 Sudeste 31 Sudeste 0 -- -- 34
2017-09-02 08:00:00 19.7 16 Sudeste 29 Sudeste 0 -- -- 38
2017-09-02 07:00:00 20.4 15 Sudeste 26 Sudeste 0 -- -- 36
2017-09-02 06:00:00 18.8 12 Sudeste 17 Sudeste 0 -- -- 42
2017-09-02 05:00:00 17 3 Norte 7 Norte 0 -- -- 50
2017-09-02 04:00:00 17.3 5 Norte 10 Norte 0 -- -- 48
2017-09-02 03:00:00 17.8 6 Norte 11 Noroeste 0 -- -- 43
2017-09-02 02:00:00 19 6 Noroeste 12 Norte 0 -- -- 39
2017-09-02 01:00:00 20.7 6 Nordeste 14 Norte 0 -- -- 35
2017-09-02 00:00:00 21.2 6 Noroeste 15 Nordeste 0 -- -- 33
2017-09-01 23:00:00 22.4 5 Norte 10 Norte 0 -- -- 33
2017-09-01 22:00:00 24.7 7 Norte 9 Norte 0 -- -- 24
2017-09-01 21:00:00 27.3 6 Norte 20 Norte 0 -- -- 20
2017-09-01 20:00:00 29.7 14 Norte 28 Norte 0 -- -- 19
2017-09-01 19:00:00 30.7 14 Nordeste 33 Nordeste 0 -- -- 18
2017-09-01 18:00:00 31.2 13 Norte 28 Norte 0 -- -- 20
2017-09-01 17:00:00 31.1 12 Norte 29 Nordeste 0 -- -- 22
2017-09-01 16:00:00 31.1 14 Noroeste 28 Noroeste 0 -- -- 22
2017-09-01 15:00:00 30.5 15 Norte 30 Norte 0 -- -- 24
2017-09-01 14:00:00 29.9 9 Nordeste 27 Nordeste 0 -- -- 27
2017-09-01 13:00:00 29 10 Nordeste 28 Nordeste 0 -- -- 30
2017-09-01 12:00:00 27.5 9 Nordeste 19 Nordeste 0 -- -- 41
2017-09-01 11:00:00 24.8 9 Norte 14 Norte 0 -- -- 49
2017-09-01 10:00:00 20.2 9 Noroeste 13 Noroeste 0 -- -- 67
2017-09-01 09:00:00 17.8 9 Noroeste 15 Noroeste 0 -- -- 71
2017-09-01 08:00:00 16.1 7 Noroeste 10 Noroeste 0 -- -- 76
2017-09-01 07:00:00 15.9 6 Noroeste 8 Noroeste 0 -- -- 76
2017-09-01 06:00:00 16.8 6 Norte 10 Noroeste 0 -- -- 74
2017-09-01 05:00:00 17.7 7 Noroeste 14 Noroeste 0 -- -- 69
2017-09-01 04:00:00 18.3 5 Noroeste 13 Oeste 0 -- -- 63
2017-09-01 03:00:00 19.5 6 Noroeste 19 Noroeste 0 -- -- 59
2017-09-01 02:00:00 21.8 0 Calma 11 Nordeste 0 -- -- 50
2017-09-01 01:00:00 21.6 5 Norte 8 Norte 0 -- -- 49
2017-09-01 00:00:00 22.8 4 Norte 6 Noroeste 0 -- -- 44
2017-08-31 23:00:00 23.9 5 Nordeste 10 Noroeste 0 -- -- 39
2017-08-31 22:00:00 24.8 8 Nordeste 9 Nordeste 0 -- -- 38
2017-08-31 21:00:00 26.9 6 Nordeste 10 Este 0 -- -- 33
2017-08-31 20:00:00 29.2 4 Sudeste 8 Este 0 -- -- 29
2017-08-31 19:00:00 28.8 3 Norte 13 Norte 0 -- -- 31
2017-08-31 18:00:00 30.1 5 Nordeste 21 Norte 0 -- -- 29
2017-08-31 17:00:00 29.8 6 Norte 18 Noroeste 0 -- -- 30
2017-08-31 16:00:00 29.2 6 Nordeste 17 Sudeste 0 -- -- 31
2017-08-31 15:00:00 29.1 9 Este 19 Este 0 -- -- 32
2017-08-31 14:00:00 28.9 6 Sur 17 Sur 0 -- -- 33
2017-08-31 13:00:00 27.1 3 Noroeste 11 Sudeste 0 -- -- 44
2017-08-31 12:00:00 25.8 6 Sudeste 14 Sur 0 -- -- 51
2017-08-31 11:00:00 23.5 5 Sudeste 13 Sur 0 -- -- 63
2017-08-31 10:00:00 18.8 3 Noroeste 6 Noroeste 0 -- -- 82
2017-08-31 09:00:00 17 0 Calma 5 Noroeste 0 -- -- 92
2017-08-31 08:00:00 15.5 3 Noroeste 6 Noroeste 0 -- -- 94
2017-08-31 07:00:00 15.7 5 Noroeste 6 Noroeste 0 -- -- 92
2017-08-31 06:00:00 16.1 5 Noroeste 8 Noroeste 0 -- -- 90
2017-08-31 05:00:00 16.4 8 Noroeste 12 Noroeste 0 -- -- 88
2017-08-31 04:00:00 17 8 Noroeste 10 Noroeste 0 -- -- 82
2017-08-31 03:00:00 17.8 6 Noroeste 10 Noroeste 0 -- -- 78
2017-08-31 02:00:00 18.1 5 Norte 11 Norte 0 -- -- 76
2017-08-31 01:00:00 19.8 9 Norte 15 Norte 0 -- -- 68
2017-08-31 00:00:00 20.7 8 Norte 14 Noroeste 0 -- -- 61
2017-08-30 23:00:00 21.7 6 Sudoeste 8 Sudoeste 0 -- -- 54
2017-08-30 22:00:00 22.5 6 Oeste 12 Sudoeste 0 -- -- 49
2017-08-30 21:00:00 24.2 8 Oeste 15 Oeste 0 -- -- 44
2017-08-30 20:00:00 26.7 4 Oeste 19 Sudoeste 0 -- -- 39
2017-08-30 19:00:00 26.4 4 Sudoeste 15 Oeste 0 -- -- 41
2017-08-30 18:00:00 26.8 5 Sudoeste 19 Sudoeste 0 -- -- 40
2017-08-30 17:00:00 26.7 9 Oeste 18 Sudoeste 0 -- -- 40
2017-08-30 16:00:00 26.4 9 Sudoeste 21 Sudoeste 0 -- -- 43
2017-08-30 15:00:00 24.1 6 Sudoeste 17 Sudoeste 0 -- -- 50
2017-08-30 14:00:00 24.7 13 Sudoeste 23 Sudoeste 0 -- -- 50
2017-08-30 13:00:00 24.6 7 Sur 15 Sudeste 0 -- -- 52
2017-08-30 12:00:00 22.6 5 Sur 12 Sudoeste 0 -- -- 55
2017-08-30 11:00:00 20.6 7 Oeste 14 Oeste 0 -- -- 62
2017-08-30 10:00:00 19.3 3 Sudeste 9 Sur 0 -- -- 72
2017-08-30 09:00:00 17 6 Sur 10 Sur 0 -- -- 83
2017-08-30 08:00:00 14.1 8 Sur 10 Sur 0 -- -- 90
2017-08-30 07:00:00 14.3 8 Sur 10 Sur 0 -- -- 87
2017-08-30 06:00:00 15.4 10 Sudeste 13 Sudeste 0 -- -- 78
2017-08-30 05:00:00 15.1 4 Sudeste 6 Nordeste 0 -- -- 76
2017-08-30 04:00:00 15 3 Nordeste 6 Oeste 0 -- -- 78
2017-08-30 03:00:00 15.3 0 Calma 6 Sur 0 -- -- 82
2017-08-30 02:00:00 15.7 3 Sudeste 7 Oeste 0 -- -- 83
2017-08-30 01:00:00 15.6 6 Oeste 8 Oeste 0 -- -- 87
2017-08-30 00:00:00 15.4 6 Nordeste 10 Norte 0 -- -- 89
2017-08-29 23:00:00 16.2 3 Norte 9 Norte 0 -- -- 83
2017-08-29 22:00:00 16.6 5 Nordeste 6 Nordeste 0 -- -- 84
2017-08-29 21:00:00 17.2 5 Noroeste 19 Noroeste 0 -- -- 80
2017-08-29 20:00:00 18.1 11 Noroeste 17 Noroeste 0 -- -- 79
2017-08-29 19:00:00 18.1 8 Sur 26 Sudeste 0.6 -- -- 85
2017-08-29 18:00:00 20.5 15 Sudeste 31 Sudeste 0 -- -- 59
2017-08-29 17:00:00 22.5 12 Sudoeste 17 Sudoeste 0 -- -- 60
2017-08-29 16:00:00 23.6 5 Nordeste 15 Sudeste 0 -- -- 52
2017-08-29 15:00:00 23.2 7 Norte 19 Norte 0 -- -- 54
2017-08-29 14:00:00 23.3 7 Noroeste 14 Nordeste 0 -- -- 55
2017-08-29 13:00:00 20.5 7 Noroeste 12 Noroeste 0 -- -- 67
2017-08-29 12:00:00 19 7 Norte 11 Norte 0 -- -- 78
2017-08-29 11:00:00 18.5 5 Noroeste 9 Noroeste 0 -- -- 81
2017-08-29 10:00:00 17.8 0 Calma 6 Sur 0 -- -- 85
2017-08-29 09:00:00 16.3 0 Calma 5 Oeste 0 -- -- 94
2017-08-29 08:00:00 14.8 0 Calma 6 Oeste 0 -- -- 95
2017-08-29 07:00:00 15.2 2 Noroeste 10 Oeste 0 -- -- 95
2017-08-29 06:00:00 15.6 4 Nordeste 9 Norte 0 -- -- 95
2017-08-29 05:00:00 15.8 4 Norte 9 Norte 0 -- -- 95
2017-08-29 04:00:00 16.4 3 Norte 11 Nordeste 0 -- -- 95
2017-08-29 03:00:00 16.5 8 Nordeste 18 Nordeste 0 -- -- 94
2017-08-29 02:00:00 17.1 4 Norte 15 Noroeste 0 -- -- 96
2017-08-29 01:00:00 16.9 7 Norte 17 Oeste 1.8 -- -- 94
2017-08-29 00:00:00 17.8 15 Sudoeste 24 Sudoeste 2 -- -- 89
2017-08-28 23:00:00 20.1 9 Norte 19 Noroeste 0 -- -- 69
2017-08-28 22:00:00 19.8 13 Noroeste 34 Sudoeste 0.2 -- -- 68
2017-08-28 21:00:00 21.8 6 Sudoeste 23 Sudoeste 0.6 -- -- 56
2017-08-28 20:00:00 25.6 14 Oeste 23 Oeste 0 -- -- 35
2017-08-28 19:00:00 26.3 11 Oeste 31 Sudoeste 0 -- -- 33
2017-08-28 18:00:00 27.3 18 Sudoeste 31 Sudoeste 0 -- -- 31
2017-08-28 17:00:00 27.2 13 Sudoeste 31 Oeste 0 -- -- 32
2017-08-28 16:00:00 27 12 Sudoeste 28 Sudoeste 0 -- -- 33
2017-08-28 15:00:00 25.4 17 Sudoeste 29 Sudoeste 0 -- -- 43
2017-08-28 14:00:00 24.8 15 Sudoeste 27 Sudoeste 0 -- -- 50
2017-08-28 13:00:00 23.1 11 Sudoeste 24 Oeste 0 -- -- 57
2017-08-28 12:00:00 22.1 15 Sudoeste 23 Sudoeste 0 -- -- 63
2017-08-28 11:00:00 20.4 9 Sudoeste 16 Sudoeste 0 -- -- 70
2017-08-28 10:00:00 17.9 5 Oeste 12 Sudoeste 0 -- -- 81
2017-08-28 09:00:00 16.3 0 Calma 10 Sur 0 -- -- 86
2017-08-28 08:00:00 15.9 8 Sudoeste 14 Sudoeste 0 -- -- 85
2017-08-28 07:00:00 16.2 5 Sudoeste 18 Sudoeste 0 -- -- 84
2017-08-28 06:00:00 16.9 12 Oeste 19 Oeste 0 -- -- 82
2017-08-28 05:00:00 18 6 Sudoeste 22 Sudoeste 0 -- -- 78
2017-08-28 04:00:00 18 9 Sudoeste 15 Sudoeste 0 -- -- 77
2017-08-28 03:00:00 18 5 Oeste 11 Sudoeste 0 -- -- 74
2017-08-28 02:00:00 19 6 Oeste 12 Norte 0 -- -- 69
2017-08-28 01:00:00 20.6 6 Noroeste 14 Oeste 0 -- -- 63
2017-08-28 00:00:00 22.8 7 Sudoeste 13 Sudoeste 0 -- -- 48
2017-08-27 23:00:00 23.5 5 Sudoeste 10 Oeste 0 -- -- 48
2017-08-27 22:00:00 24.4 5 Oeste 13 Oeste 0 -- -- 46
2017-08-27 21:00:00 26 6 Oeste 19 Oeste 0 -- -- 44
2017-08-27 20:00:00 27.9 14 Oeste 20 Oeste 0 -- -- 40
2017-08-27 19:00:00 28.6 10 Oeste 15 Oeste 0.2 -- -- 46
2017-08-27 18:00:00 26.8 4 Oeste 18 Oeste 0 -- -- 58
2017-08-27 17:00:00 25.3 12 Sudoeste 26 Oeste 0 -- -- 69
2017-08-27 16:00:00 21.9 5 Sudeste 58 Sudoeste 7.2 -- -- 86
2017-08-27 15:00:00 23.1 15 Sur 85 Sur 1.6 -- -- 77
2017-08-27 14:00:00 30.4 21 Sur 35 Sudoeste 0 -- -- 34
2017-08-27 13:00:00 27.8 18 Oeste 31 Oeste 0 -- -- 37
2017-08-27 12:00:00 27.6 16 Sur 27 Sudoeste 0 -- -- 37
2017-08-27 11:00:00 25 16 Sur 29 Sur 0 -- -- 38
2017-08-27 10:00:00 22.8 17 Sur 26 Sur 0 -- -- 40
2017-08-27 09:00:00 22.2 12 Sur 19 Sur 0 -- -- 41
2017-08-27 08:00:00 22.8 12 Sudeste 17 Sudeste 0 -- -- 39
2017-08-27 07:00:00 23 6 Oeste 13 Oeste 0 -- -- 40
2017-08-27 06:00:00 22.4 2 Nordeste 10 Este 0 -- -- 41
2017-08-27 05:00:00 22.6 8 Nordeste 10 Este 0 -- -- 41
2017-08-27 04:00:00 23.2 7 Noroeste 12 Noroeste 0 -- -- 40
2017-08-27 03:00:00 23.6 9 Noroeste 11 Noroeste 0 -- -- 38
2017-08-27 02:00:00 24.1 9 Noroeste 13 Noroeste 0 -- -- 37
2017-08-27 01:00:00 25.7 7 Sudeste 15 Sudoeste 0 -- -- 30
2017-08-27 00:00:00 27.6 11 Oeste 26 Oeste 0 -- -- 26
2017-08-26 23:00:00 27.7 9 Oeste 12 Oeste 0 -- -- 25
2017-08-26 22:00:00 27.9 7 Sudoeste 19 Sur 0 -- -- 23
2017-08-26 21:00:00 29.6 7 Sur 23 Sudeste 0 -- -- 23
2017-08-26 20:00:00 31.7 13 Sudeste 22 Sudeste 0 -- -- 19
2017-08-26 19:00:00 32.1 11 Sudeste 27 Sur 0 -- -- 20
2017-08-26 18:00:00 33.7 17 Sur 30 Sudeste 0 -- -- 18
2017-08-26 17:00:00 31.6 17 Sur 30 Sur 0 -- -- 21
2017-08-26 16:00:00 30.4 20 Sur 35 Sur 0 -- -- 22
2017-08-26 15:00:00 31.7 9 Oeste 53 Sudoeste 0 -- -- 21
2017-08-26 14:00:00 29 14 Sudoeste 41 Sur 0 -- -- 23
2017-08-26 13:00:00 26.9 21 Sur 31 Sur 0 -- -- 27
2017-08-26 12:00:00 27.5 21 Sudoeste 49 Sudoeste 0 -- -- 26
2017-08-26 11:00:00 25.3 8 Este 20 Norte 0 -- -- 26
2017-08-26 10:00:00 23.2 9 Noroeste 19 Nordeste 0 -- -- 26
2017-08-26 09:00:00 23.1 10 Sudoeste 17 Oeste 0 -- -- 23
2017-08-26 08:00:00 21.2 10 Sur 20 Sur 0 -- -- 24
2017-08-26 07:00:00 21.7 13 Sudeste 17 Sur 0 -- -- 24
2017-08-26 06:00:00 22.5 0 Calma 3 Norte 0 -- -- 26
2017-08-26 05:00:00 21.9 2 Nordeste 6 Norte 0 -- -- 24
2017-08-26 04:00:00 23.3 2 Norte 5 Nordeste 0 -- -- 19
2017-08-26 03:00:00 23.3 5 Nordeste 9 Norte 0 -- -- 16
2017-08-26 02:00:00 23.9 4 Nordeste 8 Norte 0 -- -- 16
2017-08-26 01:00:00 23.4 0 Calma 6 Noroeste 0 -- -- 16
2017-08-26 00:00:00 23.1 7 Norte 9 Norte 0 -- -- 21
2017-08-25 23:00:00 25.4 6 Noroeste 15 Noroeste 0 -- -- 18
2017-08-25 22:00:00 27.1 7 Noroeste 17 Noroeste 0 -- -- 18
2017-08-25 21:00:00 30.3 9 Oeste 26 Oeste 0 -- -- 13
2017-08-25 20:00:00 32.2 17 Oeste 30 Noroeste 0 -- -- 16
2017-08-25 19:00:00 33.2 19 Oeste 31 Sudoeste 0 -- -- 16
2017-08-25 18:00:00 34.1 15 Sudoeste 27 Oeste 0 -- -- 17
2017-08-25 17:00:00 32.1 12 Oeste 36 Oeste 0 -- -- 16
2017-08-25 16:00:00 33.3 16 Oeste 36 Oeste 0 -- -- 16
2017-08-25 15:00:00 33 14 Sudoeste 30 Sudoeste 0 -- -- 15
2017-08-25 14:00:00 32.2 7 Sudoeste 25 Sur 0 -- -- 21
2017-08-25 13:00:00 31.5 12 Sur 22 Sur 0 -- -- 22
2017-08-25 12:00:00 29.6 10 Sudeste 20 Sudeste 0 -- -- 25
2017-08-25 11:00:00 28 5 Sur 9 Sudeste 0 -- -- 26
2017-08-25 10:00:00 24.6 3 Norte 7 Norte 0 -- -- 31
2017-08-25 09:00:00 19.9 3 Norte 6 Norte 0 -- -- 44
2017-08-25 08:00:00 18.7 3 Norte 5 Noroeste 0 -- -- 45
2017-08-25 07:00:00 19.2 3 Noroeste 5 Oeste 0 -- -- 44
2017-08-25 06:00:00 18.8 3 Noroeste 7 Noroeste 0 -- -- 45
2017-08-25 05:00:00 19.3 5 Noroeste 8 Noroeste 0 -- -- 47
2017-08-25 04:00:00 19.6 5 Norte 8 Noroeste 0 -- -- 41
2017-08-25 03:00:00 20.4 5 Norte 9 Norte 0 -- -- 38
2017-08-25 02:00:00 21.4 8 Nordeste 12 Norte 0 -- -- 36
2017-08-25 01:00:00 22.8 8 Norte 19 Norte 0 -- -- 31
2017-08-25 00:00:00 23.9 4 Norte 10 Noroeste 0 -- -- 27
2017-08-24 23:00:00 25.1 7 Noroeste 10 Noroeste 0 -- -- 26
2017-08-24 22:00:00 27 7 Noroeste 9 Noroeste 0 -- -- 22
2017-08-24 21:00:00 28.7 4 Noroeste 21 Oeste 0 -- -- 20
2017-08-24 20:00:00 30.5 14 Oeste 31 Noroeste 0 -- -- 17
2017-08-24 19:00:00 32.7 14 Oeste 28 Oeste 0 -- -- 14
2017-08-24 18:00:00 32.2 15 Oeste 33 Oeste 0 -- -- 16
2017-08-24 17:00:00 33 14 Noroeste 30 Noroeste 0 -- -- 15
2017-08-24 16:00:00 31.9 10 Oeste 27 Noroeste 0 -- -- 17
2017-08-24 15:00:00 30.9 12 Oeste 29 Oeste 0 -- -- 20
2017-08-24 14:00:00 29.8 16 Oeste 31 Oeste 0 -- -- 25
2017-08-24 13:00:00 28.3 18 Oeste 28 Sudoeste 0 -- -- 29
2017-08-24 12:00:00 26.6 9 Sudoeste 19 Sudoeste 0 -- -- 36
2017-08-24 11:00:00 24.1 14 Oeste 22 Sudoeste 0 -- -- 39
2017-08-24 10:00:00 21.4 11 Oeste 20 Sudoeste 0 -- -- 51
2017-08-24 09:00:00 19.8 12 Sudoeste 20 Sudoeste 0 -- -- 53
2017-08-24 08:00:00 19.4 10 Sudoeste 22 Sudoeste 0 -- -- 56
2017-08-24 07:00:00 20.3 10 Sudoeste 21 Oeste 0 -- -- 51
2017-08-24 06:00:00 19.4 5 Sur 16 Sudoeste 0 -- -- 55
2017-08-24 05:00:00 21.3 9 Sudoeste 19 Sudoeste 0 -- -- 49
2017-08-24 04:00:00 22.3 11 Sudoeste 18 Sudoeste 0 -- -- 47
2017-08-24 03:00:00 23.2 4 Noroeste 6 Noroeste 0 -- -- 45
2017-08-24 02:00:00 23.7 4 Nordeste 13 Norte 0 -- -- 44
2017-08-24 01:00:00 25.4 8 Norte 21 Norte 0 -- -- 40
2017-08-24 00:00:00 26.8 9 Norte 18 Noroeste 0 -- -- 29
2017-08-23 23:00:00 28.7 10 Noroeste 22 Noroeste 0 -- -- 24
2017-08-23 22:00:00 29.2 9 Norte 17 Oeste 0 -- -- 25
2017-08-23 21:00:00 32.5 12 Noroeste 22 Noroeste 0 -- -- 19
2017-08-23 20:00:00 34.7 14 Oeste 24 Oeste 0 -- -- 15
2017-08-23 19:00:00 36.1 15 Oeste 27 Oeste 0 -- -- 12
2017-08-23 18:00:00 36.3 13 Oeste 27 Oeste 0 -- -- 13
2017-08-23 17:00:00 36.8 14 Oeste 30 Oeste 0 -- -- 14
2017-08-23 16:00:00 35.3 16 Noroeste 29 Oeste 0 -- -- 15
2017-08-23 15:00:00 35.5 14 Sudoeste 28 Oeste 0 -- -- 18
2017-08-23 14:00:00 33.9 15 Oeste 27 Oeste 0 -- -- 21
2017-08-23 13:00:00 32.9 15 Oeste 34 Oeste 0 -- -- 23
2017-08-23 12:00:00 31 8 Sudoeste 20 Oeste 0 -- -- 28
2017-08-23 11:00:00 29.3 11 Oeste 18 Sudoeste 0 -- -- 33
2017-08-23 10:00:00 29.1 9 Sur 12 Sur 0 -- -- 35
2017-08-23 09:00:00 25.2 3 Sur 13 Sudoeste 0 -- -- 43
2017-08-23 08:00:00 22.8 2 Norte 4 Nordeste 0 -- -- 48
2017-08-23 07:00:00 22.6 4 Norte 9 Norte 0 -- -- 50
2017-08-23 06:00:00 22.3 8 Norte 9 Norte 0 -- -- 53
2017-08-23 05:00:00 22.7 7 Norte 10 Norte 0 -- -- 53
2017-08-23 04:00:00 23.7 5 Norte 9 Norte 0 -- -- 51
2017-08-23 03:00:00 24.3 5 Norte 10 Norte 0 -- -- 47
2017-08-23 02:00:00 25.8 8 Noroeste 13 Norte 0 -- -- 41
2017-08-23 01:00:00 27.1 9 Norte 17 Norte 0 -- -- 38
2017-08-23 00:00:00 28.5 9 Norte 21 Noroeste 0 -- -- 34
2017-08-22 23:00:00 29.6 8 Noroeste 15 Noroeste 0 -- -- 31
2017-08-22 22:00:00 31.3 8 Oeste 16 Oeste 0 -- -- 27
2017-08-22 21:00:00 33.1 10 Oeste 24 Oeste 0 -- -- 24
2017-08-22 20:00:00 34.8 15 Oeste 28 Oeste 0 -- -- 22
2017-08-22 19:00:00 36 10 Oeste 26 Oeste 0 -- -- 22
2017-08-22 18:00:00 36.4 13 Noroeste 26 Noroeste 0 -- -- 23
2017-08-22 17:00:00 36.6 6 Sur 31 Noroeste 0 -- -- 22
2017-08-22 16:00:00 35.9 17 Oeste 26 Oeste 0 -- -- 24
2017-08-22 15:00:00 35 9 Norte 19 Noroeste 0 -- -- 26
2017-08-22 14:00:00 34.1 8 Norte 21 Noroeste 0 -- -- 26
2017-08-22 13:00:00 32.5 8 Oeste 19 Sudoeste 0 -- -- 32
2017-08-22 12:00:00 30.2 12 Sudoeste 20 Sudoeste 0 -- -- 40
2017-08-22 11:00:00 27.8 12 Sudoeste 19 Sudoeste 0 -- -- 49
2017-08-22 10:00:00 25.1 11 Oeste 24 Sudoeste 0 -- -- 63
2017-08-22 09:00:00 23.8 15 Sudoeste 24 Sudoeste 0 -- -- 66
2017-08-22 08:00:00 23.3 12 Sudoeste 18 Sudoeste 0 -- -- 64
2017-08-22 07:00:00 24 9 Sudoeste 14 Sudoeste 0 -- -- 59
2017-08-22 06:00:00 24.5 8 Sudoeste 14 Oeste 0 -- -- 55
2017-08-22 05:00:00 25.5 5 Oeste 8 Oeste 0 -- -- 43
2017-08-22 04:00:00 25.2 6 Norte 12 Oeste 0 -- -- 44
2017-08-22 03:00:00 26 7 Norte 9 Norte 0 -- -- 43
2017-08-22 02:00:00 27.8 5 Noroeste 21 Oeste 0 -- -- 40
2017-08-22 01:00:00 29.7 16 Noroeste 28 Oeste 0 -- -- 36
2017-08-22 00:00:00 30.2 8 Oeste 11 Oeste 0 -- -- 35